This is the latest recevied weather packets stored in our database for station/object W6DSP. If no packets are shown the sender has not sent any weather packets the latest 10 day(s).
| Time | Temp. | Humidity | Pressure | Rain* | Wind** | Luminosity | Snow |
|---|---|---|---|---|---|---|---|
| 1777677208 | 9.44° C | 50% | 1017.2 hPa | 0 mm | - | - | - |
| 1777676460 | 10° C | 50% | 1017.2 hPa | 0 mm | - | - | - |
| 1777675744 | 10.56° C | 50% | 1017.1 hPa | 0 mm | - | - | - |
| 1777675023 | 10.56° C | 51% | 1017.2 hPa | 0 mm | - | - | - |
| 1777674300 | 10° C | 52% | 1017.1 hPa | 0 mm | - | - | - |
| 1777673539 | 11.11° C | 52% | 1017 hPa | 0 mm | - | - | - |
| 1777672836 | 11.11° C | 48% | 1017 hPa | 0 mm | - | - | - |
| 1777672084 | 11.11° C | 52% | 1016.9 hPa | 0 mm | - | - | - |
| 1777671363 | 12.22° C | 46% | 1016.8 hPa | 0 mm | - | - | - |
| 1777670658 | 11.67° C | 50% | 1016.6 hPa | 0 mm | - | - | - |
| 1777669948 | 12.22° C | 51% | 1016.5 hPa | 0 mm | - | - | - |
| 1777669251 | 11.67° C | 57% | 1016.4 hPa | 0 mm | - | - | - |
| 1777668532 | 11.11° C | 59% | 1016.5 hPa | 0 mm | - | - | - |
| 1777667825 | 10.56° C | 59% | 1016.8 hPa | 0 mm | - | - | - |
| 1777667123 | 10.56° C | 60% | 1016.5 hPa | 0 mm | - | - | - |
| 1777666410 | 11.67° C | 52% | 1016.5 hPa | 0 mm | - | - | - |
| 1777665719 | 11.11° C | 60% | 1016.5 hPa | 0 mm | - | - | - |
| 1777664971 | 11.11° C | 63% | 1016.5 hPa | 0 mm | - | - | - |
| 1777664227 | 11.67° C | 59% | 1016.3 hPa | 0 mm | - | - | - |
| 1777663514 | 12.78° C | 59% | 1016.2 hPa | 0 mm | - | - | - |
| 1777662777 | 12.22° C | 61% | 1016.4 hPa | 0 mm | - | - | - |
| 1777662071 | 11.67° C | 64% | 1016.3 hPa | 0 mm | - | - | - |
| 1777661372 | 11.67° C | 58% | 1016.2 hPa | 0 mm | - | - | - |
| 1777660637 | 11.11° C | 62% | 1016.2 hPa | 0 mm | - | - | - |
| 1777659911 | 11.11° C | 62% | 1016 hPa | 0 mm | - | - | - |
* Rain latest hour (hover to see other rain measurements)
** Current wind speed in m/s (hover to see current wind gust speed)